Time,TemperatureF,DewpointF,PressureIn,WindDirection,WindDirectionDegrees,WindSpeedMPH,WindSpeedGustMPH,Humidity,HourlyPrecipIn,Conditions,Clouds,dailyrainin,SoftwareType,DateUTC
2013-08-07 00:00:00,76.3,72.8,29.79,ENE,71,0.0,5.0,89,0.00,,,0.00,Wunderground v.1.15,2013-08-07 05:00:00,
2013-08-07 00:02:00,76.1,72.6,29.78,ENE,71,0.0,0.0,89,0.00,,---,0.00,VWS V14.01,2013-08-07 05:02:00,
2013-08-07 00:05:00,76.1,72.6,29.79,ENE,71,0.0,5.0,89,0.00,,,0.00,Wunderground v.1.15,2013-08-07 05:05:00,
2013-08-07 00:08:00,76.0,72.5,29.79,ENE,71,0.0,0.0,89,0.00,,---,0.00,VWS V14.01,2013-08-07 05:08:00,
2013-08-07 00:13:00,76.0,72.9,29.79,ENE,71,0.0,0.0,90,0.00,,---,0.00,VWS V14.01,2013-08-07 05:13:00,
2013-08-07 00:15:00,76.0,72.9,29.79,ENE,71,0.0,0.0,90,0.00,,,0.00,Wunderground v.1.15,2013-08-07 05:15:00,
2013-08-07 00:18:00,76.0,72.9,29.79,ENE,71,0.0,0.0,90,0.00,,---,0.00,VWS V14.01,2013-08-07 05:18:00,
2013-08-07 00:20:00,75.8,72.7,29.79,ENE,71,0.0,0.0,90,0.00,,,0.00,Wunderground v.1.15,2013-08-07 05:20:00,
2013-08-07 00:23:00,75.8,72.7,29.79,ENE,71,0.0,0.0,90,0.00,,---,0.00,VWS V14.01,2013-08-07 05:23:00,
2013-08-07 00:25:00,75.8,72.7,29.79,ENE,71,0.0,0.0,90,0.00,,,0.00,Wunderground v.1.15,2013-08-07 05:25:00,
2013-08-07 00:29:00,75.4,72.3,29.79,ENE,71,0.0,0.0,90,0.00,,---,0.00,VWS V14.01,2013-08-07 05:29:00,
2013-08-07 00:30:00,75.4,72.3,29.80,ENE,71,0.0,0.0,90,0.00,,,0.00,Wunderground v.1.15,2013-08-07 05:30:00,
2013-08-07 00:34:00,75.3,72.2,29.80,ENE,71,0.0,0.0,90,0.00,,---,0.00,VWS V14.01,2013-08-07 05:34:00,
2013-08-07 00:35:00,75.3,72.2,29.80,ENE,71,0.0,0.0,90,0.00,,,0.00,Wunderground v.1.15,2013-08-07 05:35:00,
2013-08-07 00:39:00,75.1,72.0,29.80,ENE,71,0.0,0.0,90,0.00,,---,0.00,VWS V14.01,2013-08-07 05:39:00,
2013-08-07 00:40:00,75.1,72.0,29.80,ENE,71,0.0,0.0,90,0.00,,,0.00,Wunderground v.1.15,2013-08-07 05:40:00,
2013-08-07 00:44:00,74.9,71.8,29.79,ENE,71,0.0,0.0,90,0.00,,---,0.00,VWS V14.01,2013-08-07 05:44:00,
2013-08-07 00:45:00,74.9,71.8,29.79,ENE,71,0.0,0.0,90,0.00,,,0.00,Wunderground v.1.15,2013-08-07 05:45:00,
2013-08-07 00:49:00,74.9,72.1,29.79,ENE,71,0.0,0.0,91,0.00,,---,0.00,VWS V14.01,2013-08-07 05:49:00,
2013-08-07 00:50:00,74.9,72.1,29.79,ENE,71,0.0,0.0,91,0.00,,,0.00,Wunderground v.1.15,2013-08-07 05:50:00,
2013-08-07 00:55:00,74.9,72.1,29.79,ENE,71,0.0,0.0,91,0.00,,---,0.00,VWS V14.01,2013-08-07 05:55:00,
2013-08-07 01:00:00,74.7,71.9,29.79,ENE,71,0.0,0.0,91,0.00,,---,0.00,VWS V14.01,2013-08-07 06:00:00,
2013-08-07 01:05:00,74.7,71.9,29.79,ENE,71,0.0,0.0,91,0.00,,---,0.00,VWS V14.01,2013-08-07 06:05:00,
2013-08-07 01:10:00,74.6,71.8,29.79,ENE,71,0.0,0.0,91,0.00,,---,0.00,VWS V14.01,2013-08-07 06:10:00,
2013-08-07 01:15:00,74.4,71.6,29.79,ENE,71,0.0,0.0,91,0.00,,---,0.00,VWS V14.01,2013-08-07 06:15:00,
2013-08-07 01:20:00,74.4,71.6,29.80,ENE,71,0.0,0.0,91,0.00,,---,0.00,VWS V14.01,2013-08-07 06:20:00,
2013-08-07 01:25:00,74.2,71.4,29.80,ENE,71,0.0,0.0,91,0.00,,---,0.00,VWS V14.01,2013-08-07 06:25:00,
2013-08-07 01:30:00,74.0,71.2,29.80,ENE,71,0.0,0.0,91,0.00,,,0.00,Wunderground v.1.15,2013-08-07 06:30:00,
2013-08-07 01:35:00,74.0,71.2,29.80,ENE,71,0.0,0.0,91,0.00,,,0.00,Wunderground v.1.15,2013-08-07 06:35:00,
2013-08-07 01:40:00,73.9,71.1,29.80,ENE,71,0.0,0.0,91,0.00,,,0.00,Wunderground v.1.15,2013-08-07 06:40:00,
2013-08-07 01:45:00,73.7,70.9,29.80,ENE,71,0.0,0.0,91,0.00,,,0.00,Wunderground v.1.15,2013-08-07 06:45:00,
2013-08-07 01:50:00,73.7,70.9,29.80,ENE,71,0.0,0.0,91,0.00,,,0.00,Wunderground v.1.15,2013-08-07 06:50:00,
2013-08-07 01:51:00,73.7,70.9,29.80,ENE,71,0.0,0.0,91,0.00,,---,0.00,VWS V14.01,2013-08-07 06:51:00,
2013-08-07 01:55:00,73.5,70.7,29.80,ENE,71,0.0,0.0,91,0.00,,,0.00,Wunderground v.1.15,2013-08-07 06:55:00,
2013-08-07 01:56:00,73.5,70.7,29.80,ENE,71,0.0,0.0,91,0.00,,---,0.00,VWS V14.01,2013-08-07 06:56:00,
2013-08-07 02:00:00,73.5,70.7,29.80,ENE,71,0.0,0.0,91,0.00,,,0.00,Wunderground v.1.15,2013-08-07 07:00:00,
2013-08-07 02:01:00,73.5,70.7,29.80,ENE,71,0.0,0.0,91,0.00,,---,0.00,VWS V14.01,2013-08-07 07:01:00,
2013-08-07 02:05:00,73.5,70.7,29.79,ENE,71,0.0,0.0,91,0.00,,,0.00,Wunderground v.1.15,2013-08-07 07:05:00,
2013-08-07 02:06:00,73.3,70.5,29.79,ENE,71,0.0,0.0,91,0.00,,---,0.00,VWS V14.01,2013-08-07 07:06:00,
2013-08-07 02:10:00,73.3,70.5,29.80,ENE,71,0.0,0.0,91,0.00,,,0.00,Wunderground v.1.15,2013-08-07 07:10:00,
2013-08-07 02:11:00,73.3,70.5,29.80,ENE,71,0.0,0.0,91,0.00,,---,0.00,VWS V14.01,2013-08-07 07:11:00,
2013-08-07 02:15:00,73.2,70.7,29.80,ENE,71,0.0,0.0,92,0.00,,,0.00,Wunderground v.1.15,2013-08-07 07:15:00,
2013-08-07 02:16:00,73.2,70.7,29.80,ENE,71,0.0,0.0,92,0.00,,---,0.00,VWS V14.01,2013-08-07 07:16:00,
2013-08-07 02:20:00,73.2,70.7,29.80,ENE,71,0.0,0.0,92,0.00,,,0.00,Wunderground v.1.15,2013-08-07 07:20:00,
2013-08-07 02:21:00,73.2,70.7,29.80,ENE,71,0.0,0.0,92,0.00,,---,0.00,VWS V14.01,2013-08-07 07:21:00,
2013-08-07 02:25:00,73.2,70.7,29.80,ENE,71,0.0,0.0,92,0.00,,,0.00,Wunderground v.1.15,2013-08-07 07:25:00,
2013-08-07 02:27:00,73.2,70.7,29.80,ENE,71,0.0,0.0,92,0.00,,---,0.00,VWS V14.01,2013-08-07 07:27:00,
2013-08-07 02:30:00,73.2,70.7,29.80,ENE,71,0.0,0.0,92,0.00,,,0.00,Wunderground v.1.15,2013-08-07 07:30:00,
2013-08-07 02:32:00,73.2,70.7,29.80,ENE,71,0.0,0.0,92,0.00,,---,0.00,VWS V14.01,2013-08-07 07:32:00,
2013-08-07 02:35:00,73.0,70.5,29.79,ENE,71,0.0,0.0,92,0.00,,,0.00,Wunderground v.1.15,2013-08-07 07:35:00,
2013-08-07 02:37:00,73.0,70.5,29.79,ENE,71,0.0,0.0,92,0.00,,---,0.00,VWS V14.01,2013-08-07 07:37:00,
2013-08-07 02:40:00,73.0,70.5,29.79,ENE,71,0.0,0.0,92,0.00,,,0.00,Wunderground v.1.15,2013-08-07 07:40:00,
2013-08-07 02:42:00,73.0,70.5,29.79,ENE,71,0.0,0.0,92,0.00,,---,0.00,VWS V14.01,2013-08-07 07:42:00,
2013-08-07 02:45:00,73.0,70.5,29.79,ENE,71,0.0,0.0,92,0.00,,,0.00,Wunderground v.1.15,2013-08-07 07:45:00,
2013-08-07 02:47:00,73.0,70.5,29.79,ENE,71,0.0,0.0,92,0.00,,---,0.00,VWS V14.01,2013-08-07 07:47:00,
2013-08-07 02:50:00,73.0,70.5,29.79,ENE,71,0.0,0.0,92,0.00,,,0.00,Wunderground v.1.15,2013-08-07 07:50:00,
2013-08-07 02:52:00,73.0,70.5,29.79,ENE,71,0.0,0.0,92,0.00,,---,0.00,VWS V14.01,2013-08-07 07:52:00,
2013-08-07 02:55:00,73.0,70.5,29.79,ENE,71,0.0,0.0,92,0.00,,,0.00,Wunderground v.1.15,2013-08-07 07:55:00,
2013-08-07 02:57:00,73.0,70.5,29.79,ENE,71,0.0,0.0,92,0.00,,---,0.00,VWS V14.01,2013-08-07 07:57:00,
2013-08-07 03:02:00,73.0,70.5,29.79,ENE,71,0.0,0.0,92,0.00,,---,0.00,VWS V14.01,2013-08-07 08:02:00,
2013-08-07 03:05:00,73.0,70.5,29.78,ENE,71,0.0,0.0,92,0.00,,,0.00,Wunderground v.1.15,2013-08-07 08:05:00,
2013-08-07 03:07:00,73.0,70.5,29.78,ENE,71,0.0,0.0,92,0.00,,---,0.00,VWS V14.01,2013-08-07 08:07:00,
2013-08-07 03:10:00,73.0,70.5,29.78,ENE,71,0.0,0.0,92,0.00,,,0.00,Wunderground v.1.15,2013-08-07 08:10:00,
2013-08-07 03:12:00,73.0,70.2,29.78,ENE,71,0.0,0.0,91,0.00,,---,0.00,VWS V14.01,2013-08-07 08:12:00,
2013-08-07 03:15:00,73.0,70.2,29.79,ENE,71,0.0,0.0,91,0.00,,,0.00,Wunderground v.1.15,2013-08-07 08:15:00,
2013-08-07 03:17:00,73.0,70.2,29.79,ENE,71,0.0,0.0,91,0.00,,---,0.00,VWS V14.01,2013-08-07 08:17:00,
2013-08-07 03:20:00,73.2,70.1,29.78,ENE,74,0.0,1.0,90,0.00,,,0.00,Wunderground v.1.15,2013-08-07 08:20:00,
2013-08-07 03:22:00,73.2,70.1,29.78,ENE,74,0.0,1.0,90,0.00,,---,0.00,VWS V14.01,2013-08-07 08:22:00,
2013-08-07 03:25:00,73.3,69.9,29.78,ENE,74,0.0,1.0,89,0.00,,,0.00,Wunderground v.1.15,2013-08-07 08:25:00,
2013-08-07 03:27:00,73.3,69.9,29.78,ENE,74,0.0,1.0,89,0.00,,---,0.00,VWS V14.01,2013-08-07 08:27:00,
2013-08-07 03:30:00,73.3,69.9,29.78,ENE,74,0.0,0.0,89,0.00,,,0.00,Wunderground v.1.15,2013-08-07 08:30:00,
2013-08-07 03:32:00,73.3,69.9,29.78,ENE,74,0.0,0.0,89,0.00,,---,0.00,VWS V14.01,2013-08-07 08:32:00,
2013-08-07 03:35:00,73.3,69.9,29.78,ENE,74,0.0,0.0,89,0.00,,,0.00,Wunderground v.1.15,2013-08-07 08:35:00,
2013-08-07 03:38:00,73.3,69.9,29.78,ENE,74,0.0,0.0,89,0.00,,---,0.00,VWS V14.01,2013-08-07 08:38:00,
2013-08-07 03:40:00,73.3,69.9,29.78,ENE,74,0.0,0.0,89,0.00,,,0.00,Wunderground v.1.15,2013-08-07 08:40:00,
2013-08-07 03:43:00,73.5,70.1,29.78,ENE,74,0.0,0.0,89,0.00,,---,0.00,VWS V14.01,2013-08-07 08:43:00,
2013-08-07 03:45:00,73.5,70.1,29.78,ENE,74,0.0,0.0,89,0.00,,,0.00,Wunderground v.1.15,2013-08-07 08:45:00,
2013-08-07 03:48:00,73.5,69.7,29.78,ENE,74,0.0,0.0,88,0.00,,---,0.00,VWS V14.01,2013-08-07 08:48:00,
2013-08-07 03:50:00,73.5,69.7,29.78,ENE,74,0.0,0.0,88,0.00,,,0.00,Wunderground v.1.15,2013-08-07 08:50:00,
2013-08-07 03:53:00,73.7,69.6,29.77,ENE,74,0.0,0.0,87,0.00,,---,0.00,VWS V14.01,2013-08-07 08:53:00,
2013-08-07 03:55:00,73.7,69.6,29.77,ENE,74,0.0,0.0,87,0.00,,,0.00,Wunderground v.1.15,2013-08-07 08:55:00,
2013-08-07 03:58:00,73.7,69.6,29.77,ENE,74,0.0,0.0,87,0.00,,---,0.00,VWS V14.01,2013-08-07 08:58:00,
2013-08-07 04:00:00,73.7,69.6,29.77,ENE,74,0.0,0.0,87,0.00,,,0.00,Wunderground v.1.15,2013-08-07 09:00:00,
2013-08-07 04:03:00,73.7,69.6,29.77,ENE,74,0.0,0.0,87,0.00,,---,0.00,VWS V14.01,2013-08-07 09:03:00,
2013-08-07 04:05:00,73.7,69.6,29.77,ENE,74,0.0,0.0,87,0.00,,,0.00,Wunderground v.1.15,2013-08-07 09:05:00,
2013-08-07 04:08:00,73.7,69.6,29.77,ENE,74,0.0,0.0,87,0.00,,---,0.00,VWS V14.01,2013-08-07 09:08:00,
2013-08-07 04:10:00,73.7,69.2,29.77,ENE,74,0.0,0.0,86,0.00,,,0.00,Wunderground v.1.15,2013-08-07 09:10:00,
2013-08-07 04:13:00,73.9,69.4,29.77,ENE,74,0.0,0.0,86,0.00,,---,0.00,VWS V14.01,2013-08-07 09:13:00,
2013-08-07 04:15:00,73.9,69.4,29.77,ENE,74,0.0,0.0,86,0.00,,,0.00,Wunderground v.1.15,2013-08-07 09:15:00,
2013-08-07 04:18:00,73.9,69.4,29.77,ENE,74,0.0,0.0,86,0.00,,---,0.00,VWS V14.01,2013-08-07 09:18:00,
2013-08-07 04:20:00,73.9,69.4,29.77,ENE,74,0.0,0.0,86,0.00,,,0.00,Wunderground v.1.15,2013-08-07 09:20:00,
2013-08-07 04:24:00,73.7,69.6,29.77,ENE,74,0.0,0.0,87,0.00,,---,0.00,VWS V14.01,2013-08-07 09:24:00,
2013-08-07 04:25:00,73.7,69.6,29.77,ENE,74,0.0,0.0,87,0.00,,,0.00,Wunderground v.1.15,2013-08-07 09:25:00,
2013-08-07 04:29:00,73.5,69.4,29.77,ENE,74,0.0,0.0,87,0.00,,---,0.00,VWS V14.01,2013-08-07 09:29:00,
2013-08-07 04:30:00,73.5,69.4,29.77,ENE,74,0.0,0.0,87,0.00,,,0.00,Wunderground v.1.15,2013-08-07 09:30:00,
2013-08-07 04:34:00,73.3,69.2,29.77,ENE,74,0.0,0.0,87,0.00,,---,0.00,VWS V14.01,2013-08-07 09:34:00,
2013-08-07 04:35:00,73.3,69.2,29.77,ENE,74,0.0,0.0,87,0.00,,,0.00,Wunderground v.1.15,2013-08-07 09:35:00,
2013-08-07 04:39:00,73.3,69.2,29.77,ENE,74,0.0,0.0,87,0.00,,---,0.00,VWS V14.01,2013-08-07 09:39:00,
2013-08-07 04:40:00,73.3,69.2,29.77,ENE,74,0.0,0.0,87,0.00,,,0.00,Wunderground v.1.15,2013-08-07 09:40:00,
2013-08-07 04:44:00,73.3,69.5,29.77,ENE,74,0.0,0.0,88,0.00,,---,0.00,VWS V14.01,2013-08-07 09:44:00,
2013-08-07 04:45:00,73.2,69.4,29.77,ENE,74,0.0,0.0,88,0.00,,,0.00,Wunderground v.1.15,2013-08-07 09:45:00,
2013-08-07 04:49:00,73.2,69.4,29.78,ENE,74,0.0,0.0,88,0.00,,---,0.00,VWS V14.01,2013-08-07 09:49:00,
2013-08-07 04:50:00,73.2,69.4,29.78,ENE,74,0.0,0.0,88,0.00,,,0.00,Wunderground v.1.15,2013-08-07 09:50:00,
2013-08-07 04:54:00,73.0,69.2,29.78,ENE,74,0.0,0.0,88,0.00,,---,0.00,VWS V14.01,2013-08-07 09:54:00,
2013-08-07 04:55:00,73.0,69.2,29.78,ENE,74,0.0,0.0,88,0.00,,,0.00,Wunderground v.1.15,2013-08-07 09:55:00,
2013-08-07 04:59:00,72.8,69.0,29.77,ENE,74,0.0,0.0,88,0.00,,---,0.00,VWS V14.01,2013-08-07 09:59:00,
2013-08-07 05:00:00,72.8,69.0,29.77,ENE,74,0.0,0.0,88,0.00,,,0.00,Wunderground v.1.15,2013-08-07 10:00:00,
2013-08-07 05:04:00,72.8,69.4,29.78,ENE,74,0.0,0.0,89,0.00,,---,0.00,VWS V14.01,2013-08-07 10:04:00,
2013-08-07 05:05:00,72.8,69.4,29.78,ENE,74,0.0,0.0,89,0.00,,,0.00,Wunderground v.1.15,2013-08-07 10:05:00,
2013-08-07 05:09:00,72.7,69.3,29.78,ENE,74,0.0,0.0,89,0.00,,---,0.00,VWS V14.01,2013-08-07 10:09:00,
2013-08-07 05:10:00,72.7,69.3,29.77,ENE,74,0.0,0.0,89,0.00,,,0.00,Wunderground v.1.15,2013-08-07 10:10:00,
2013-08-07 05:14:00,72.5,69.1,29.78,ENE,74,0.0,0.0,89,0.00,,---,0.00,VWS V14.01,2013-08-07 10:14:00,
2013-08-07 05:15:00,72.5,69.1,29.78,ENE,74,0.0,0.0,89,0.00,,,0.00,Wunderground v.1.15,2013-08-07 10:15:00,
2013-08-07 05:20:00,72.3,69.2,29.78,ENE,74,0.0,0.0,90,0.00,,---,0.00,VWS V14.01,2013-08-07 10:20:00,
2013-08-07 05:25:00,72.1,68.7,29.78,ENE,74,0.0,0.0,89,0.00,,,0.00,Wunderground v.1.15,2013-08-07 10:25:00,
2013-08-07 05:30:00,72.0,68.9,29.78,ENE,74,0.0,0.0,90,0.00,,,0.00,Wunderground v.1.15,2013-08-07 10:30:00,
2013-08-07 05:35:00,72.0,69.2,29.78,ENE,74,0.0,0.0,91,0.00,,,0.00,Wunderground v.1.15,2013-08-07 10:35:00,
2013-08-07 05:36:00,72.0,69.2,29.79,ENE,74,0.0,0.0,91,0.00,,---,0.00,VWS V14.01,2013-08-07 10:36:00,
2013-08-07 05:40:00,72.0,69.2,29.79,ENE,74,0.0,0.0,91,0.00,,,0.00,Wunderground v.1.15,2013-08-07 10:40:00,
2013-08-07 05:41:00,72.0,69.2,29.79,ENE,74,0.0,0.0,91,0.00,,---,0.00,VWS V14.01,2013-08-07 10:41:00,
2013-08-07 05:45:00,71.8,69.0,29.79,ENE,74,0.0,0.0,91,0.00,,,0.00,Wunderground v.1.15,2013-08-07 10:45:00,
2013-08-07 05:46:00,71.8,69.0,29.79,ENE,74,0.0,0.0,91,0.00,,---,0.00,VWS V14.01,2013-08-07 10:46:00,
2013-08-07 05:50:00,71.6,68.8,29.80,ENE,74,0.0,0.0,91,0.00,,,0.00,Wunderground v.1.15,2013-08-07 10:50:00,
2013-08-07 05:51:00,71.6,68.8,29.80,ENE,74,0.0,0.0,91,0.00,,---,0.00,VWS V14.01,2013-08-07 10:51:00,
2013-08-07 05:55:00,71.5,68.7,29.80,ENE,74,0.0,0.0,91,0.00,,,0.00,Wunderground v.1.15,2013-08-07 10:55:00,
2013-08-07 05:56:00,71.5,68.7,29.80,ENE,74,0.0,0.0,91,0.00,,---,0.00,VWS V14.01,2013-08-07 10:56:00,
2013-08-07 06:00:00,71.5,68.7,29.80,ENE,74,0.0,0.0,91,0.00,,,0.00,Wunderground v.1.15,2013-08-07 11:00:00,
2013-08-07 06:01:00,71.5,68.7,29.80,ENE,74,0.0,0.0,91,0.00,,---,0.00,VWS V14.01,2013-08-07 11:01:00,
2013-08-07 06:05:00,71.5,69.1,29.81,ENE,74,0.0,0.0,92,0.00,,,0.00,Wunderground v.1.15,2013-08-07 11:05:00,
2013-08-07 06:06:00,71.3,68.9,29.81,ENE,74,0.0,0.0,92,0.00,,---,0.00,VWS V14.01,2013-08-07 11:06:00,
2013-08-07 06:11:00,71.1,68.3,29.81,ENE,74,0.0,0.0,91,0.00,,---,0.00,VWS V14.01,2013-08-07 11:11:00,
2013-08-07 06:15:00,70.9,68.5,29.81,ENE,74,0.0,0.0,92,0.00,,,0.00,Wunderground v.1.15,2013-08-07 11:15:00,
2013-08-07 06:16:00,70.9,68.5,29.81,ENE,74,0.0,0.0,92,0.00,,---,0.00,VWS V14.01,2013-08-07 11:16:00,
2013-08-07 06:20:00,70.8,68.4,29.81,ENE,74,0.0,0.0,92,0.00,,,0.00,Wunderground v.1.15,2013-08-07 11:20:00,
2013-08-07 06:21:00,70.8,68.4,29.81,ENE,74,0.0,0.0,92,0.00,,---,0.00,VWS V14.01,2013-08-07 11:21:00,
2013-08-07 06:25:00,70.6,68.2,29.81,ENE,74,0.0,0.0,92,0.00,,,0.00,Wunderground v.1.15,2013-08-07 11:25:00,
2013-08-07 06:27:00,70.6,68.2,29.81,ENE,74,0.0,0.0,92,0.00,,---,0.00,VWS V14.01,2013-08-07 11:27:00,
2013-08-07 06:30:00,70.6,68.2,29.80,ENE,74,0.0,0.0,92,0.00,,,0.00,Wunderground v.1.15,2013-08-07 11:30:00,
2013-08-07 06:32:00,70.6,68.2,29.80,ENE,74,0.0,0.0,92,0.00,,---,0.00,VWS V14.01,2013-08-07 11:32:00,
2013-08-07 06:35:00,70.6,68.2,29.80,ENE,74,0.0,0.0,92,0.00,,,0.00,Wunderground v.1.15,2013-08-07 11:35:00,
2013-08-07 06:37:00,70.6,68.2,29.80,ENE,74,0.0,0.0,92,0.00,,---,0.00,VWS V14.01,2013-08-07 11:37:00,
2013-08-07 06:40:00,70.4,68.0,29.81,ENE,74,0.0,0.0,92,0.00,,,0.00,Wunderground v.1.15,2013-08-07 11:40:00,
2013-08-07 06:42:00,70.3,67.9,29.81,ENE,74,0.0,0.0,92,0.00,,---,0.00,VWS V14.01,2013-08-07 11:42:00,
2013-08-07 06:45:00,70.4,68.6,29.81,ENE,74,0.0,0.0,94,0.00,,,0.00,Wunderground v.1.15,2013-08-07 11:45:00,
2013-08-07 06:47:00,70.4,68.3,29.80,ENE,74,0.0,0.0,93,0.00,,---,0.00,VWS V14.01,2013-08-07 11:47:00,
2013-08-07 06:50:00,70.4,68.3,29.80,ENE,74,0.0,0.0,93,0.00,,,0.00,Wunderground v.1.15,2013-08-07 11:50:00,
2013-08-07 06:52:00,70.4,68.3,29.80,ENE,74,0.0,0.0,93,0.00,,---,0.00,VWS V14.01,2013-08-07 11:52:00,
2013-08-07 06:55:00,70.4,68.3,29.80,ENE,74,0.0,0.0,93,0.00,,,0.00,Wunderground v.1.15,2013-08-07 11:55:00,
2013-08-07 06:57:00,70.6,68.5,29.80,ENE,74,0.0,0.0,93,0.00,,---,0.00,VWS V14.01,2013-08-07 11:57:00,
2013-08-07 07:00:00,70.6,68.5,29.80,ENE,74,0.0,0.0,93,0.00,,,0.00,Wunderground v.1.15,2013-08-07 12:00:00,
2013-08-07 07:02:00,70.8,68.7,29.80,ENE,74,0.0,0.0,93,0.00,,---,0.00,VWS V14.01,2013-08-07 12:02:00,
2013-08-07 07:05:00,70.8,68.7,29.80,ENE,74,0.0,0.0,93,0.00,,,0.00,Wunderground v.1.15,2013-08-07 12:05:00,
2013-08-07 07:07:00,70.8,68.7,29.80,ENE,74,0.0,0.0,93,0.00,,---,0.00,VWS V14.01,2013-08-07 12:07:00,
2013-08-07 07:10:00,70.9,68.8,29.80,ENE,74,0.0,0.0,93,0.00,,,0.00,Wunderground v.1.15,2013-08-07 12:10:00,
2013-08-07 07:12:00,70.9,68.8,29.81,ENE,74,0.0,0.0,93,0.00,,---,0.00,VWS V14.01,2013-08-07 12:12:00,
2013-08-07 07:15:00,71.3,69.5,29.81,ENE,74,0.0,0.0,94,0.00,,,0.00,Wunderground v.1.15,2013-08-07 12:15:00,
2013-08-07 07:17:00,71.5,69.4,29.80,ENE,74,0.0,0.0,93,0.00,,---,0.00,VWS V14.01,2013-08-07 12:17:00,
2013-08-07 07:20:00,71.6,69.5,29.80,ENE,74,0.0,0.0,93,0.00,,,0.00,Wunderground v.1.15,2013-08-07 12:20:00,
2013-08-07 07:22:00,72.0,69.9,29.80,ENE,74,0.0,0.0,93,0.00,,---,0.00,VWS V14.01,2013-08-07 12:22:00,
2013-08-07 07:25:00,72.3,69.8,29.81,ENE,74,0.0,0.0,92,0.00,,,0.00,Wunderground v.1.15,2013-08-07 12:25:00,
2013-08-07 07:27:00,72.7,70.2,29.81,ENE,74,0.0,0.0,92,0.00,,---,0.00,VWS V14.01,2013-08-07 12:27:00,
2013-08-07 07:30:00,72.8,70.3,29.81,ENE,74,0.0,0.0,92,0.00,,,0.00,Wunderground v.1.15,2013-08-07 12:30:00,
2013-08-07 07:33:00,73.2,70.7,29.81,ENE,74,0.0,0.0,92,0.00,,---,0.00,VWS V14.01,2013-08-07 12:33:00,
2013-08-07 07:35:00,73.3,70.8,29.81,ENE,74,0.0,0.0,92,0.00,,,0.00,Wunderground v.1.15,2013-08-07 12:35:00,
2013-08-07 07:38:00,73.7,71.2,29.81,ENE,74,0.0,0.0,92,0.00,,---,0.00,VWS V14.01,2013-08-07 12:38:00,
2013-08-07 07:40:00,74.0,70.9,29.81,ENE,74,0.0,0.0,90,0.00,,,0.00,Wunderground v.1.15,2013-08-07 12:40:00,
2013-08-07 07:43:00,74.4,71.3,29.81,ENE,74,0.0,0.0,90,0.00,,---,0.00,VWS V14.01,2013-08-07 12:43:00,
2013-08-07 07:45:00,74.6,71.1,29.81,ENE,74,0.0,0.0,89,0.00,,,0.00,Wunderground v.1.15,2013-08-07 12:45:00,
2013-08-07 07:48:00,75.3,71.8,29.81,ENE,74,0.0,0.0,89,0.00,,---,0.00,VWS V14.01,2013-08-07 12:48:00,
2013-08-07 07:50:00,75.6,72.1,29.81,ENE,74,0.0,0.0,89,0.00,,,0.00,Wunderground v.1.15,2013-08-07 12:50:00,
2013-08-07 07:53:00,76.3,73.2,29.81,ENE,74,0.0,0.0,90,0.00,,---,0.00,VWS V14.01,2013-08-07 12:53:00,
2013-08-07 07:55:00,76.5,73.0,29.81,ENE,74,0.0,0.0,89,0.00,,,0.00,Wunderground v.1.15,2013-08-07 12:55:00,
2013-08-07 07:58:00,77.2,73.7,29.82,ENE,74,0.0,0.0,89,0.00,,---,0.00,VWS V14.01,2013-08-07 12:58:00,
2013-08-07 08:00:00,77.4,73.2,29.82,ENE,74,0.0,0.0,87,0.00,,,0.00,Wunderground v.1.15,2013-08-07 13:00:00,
2013-08-07 08:04:00,77.9,73.4,29.82,ENE,74,0.0,0.0,86,0.00,,---,0.00,VWS V14.01,2013-08-07 13:04:00,
2013-08-07 08:05:00,78.1,73.6,29.83,ENE,74,0.0,0.0,86,0.00,,,0.00,Wunderground v.1.15,2013-08-07 13:05:00,
2013-08-07 08:09:00,78.6,72.7,29.83,ENE,74,0.0,0.0,82,0.00,,---,0.00,VWS V14.01,2013-08-07 13:09:00,
2013-08-07 08:10:00,78.8,72.8,29.83,ENE,74,0.0,0.0,82,0.00,,,0.00,Wunderground v.1.15,2013-08-07 13:10:00,
2013-08-07 08:14:00,79.4,72.7,29.83,ENE,74,0.0,0.0,80,0.00,,---,0.00,VWS V14.01,2013-08-07 13:14:00,
2013-08-07 08:15:00,79.4,72.7,29.83,ENE,74,0.0,0.0,80,0.00,,,0.00,Wunderground v.1.15,2013-08-07 13:15:00,
2013-08-07 08:19:00,80.1,73.4,29.83,ENE,74,0.0,0.0,80,0.00,,---,0.00,VWS V14.01,2013-08-07 13:19:00,
2013-08-07 08:20:00,80.1,73.4,29.83,ENE,74,0.0,0.0,80,0.00,,,0.00,Wunderground v.1.15,2013-08-07 13:20:00,
2013-08-07 08:24:00,80.7,74.0,29.84,ENE,74,0.0,0.0,80,0.00,,---,0.00,VWS V14.01,2013-08-07 13:24:00,
2013-08-07 08:25:00,80.7,74.0,29.84,ENE,74,0.0,0.0,80,0.00,,,0.00,Wunderground v.1.15,2013-08-07 13:25:00,
2013-08-07 08:29:00,81.1,74.3,29.84,ENE,74,0.0,0.0,80,0.00,,---,0.00,VWS V14.01,2013-08-07 13:29:00,
2013-08-07 08:30:00,81.1,74.3,29.84,ENE,74,0.0,0.0,80,0.00,,,0.00,Wunderground v.1.15,2013-08-07 13:30:00,
2013-08-07 08:35:00,81.6,74.8,29.84,ENE,74,0.0,0.0,80,0.00,,---,0.00,VWS V14.01,2013-08-07 13:35:00,
2013-08-07 08:40:00,81.8,71.9,29.85,ENE,74,0.0,0.0,72,0.00,,---,0.00,VWS V14.01,2013-08-07 13:40:00,
2013-08-07 08:45:00,82.2,72.7,29.85,ENE,74,0.0,0.0,73,0.00,,,0.00,Wunderground v.1.15,2013-08-07 13:45:00,
2013-08-07 08:50:00,82.6,73.1,29.85,ENE,74,0.0,0.0,73,0.00,,,0.00,Wunderground v.1.15,2013-08-07 13:50:00,
2013-08-07 08:55:00,82.6,73.1,29.85,ENE,74,0.0,0.0,73,0.00,,,0.00,Wunderground v.1.15,2013-08-07 13:55:00,
2013-08-07 09:00:00,82.8,72.4,29.85,ESE,102,0.0,0.0,71,0.00,,,0.00,Wunderground v.1.15,2013-08-07 14:00:00,
2013-08-07 09:05:00,83.0,72.6,29.85,ESE,102,0.0,0.0,71,0.00,,,0.00,Wunderground v.1.15,2013-08-07 14:05:00,
2013-08-07 09:06:00,83.0,72.6,29.85,ESE,102,0.0,0.0,71,0.00,,---,0.00,VWS V14.01,2013-08-07 14:06:00,
2013-08-07 09:10:00,83.2,72.0,29.85,SSE,166,0.0,0.0,69,0.00,,,0.00,Wunderground v.1.15,2013-08-07 14:10:00,
2013-08-07 09:11:00,83.2,72.0,29.85,South,190,0.0,0.0,69,0.00,,---,0.00,VWS V14.01,2013-08-07 14:11:00,
2013-08-07 09:15:00,83.0,72.2,29.85,South,181,0.0,0.0,70,0.00,,,0.00,Wunderground v.1.15,2013-08-07 14:15:00,
2013-08-07 09:16:00,83.0,72.2,29.85,South,181,0.0,0.0,70,0.00,,---,0.00,VWS V14.01,2013-08-07 14:16:00,
2013-08-07 09:20:00,83.4,72.6,29.85,SSE,159,0.0,0.0,70,0.00,,,0.00,Wunderground v.1.15,2013-08-07 14:20:00,
2013-08-07 09:21:00,83.4,72.6,29.85,SSE,157,0.0,0.0,70,0.00,,---,0.00,VWS V14.01,2013-08-07 14:21:00,
2013-08-07 09:25:00,84.0,73.2,29.85,SSE,157,0.0,0.0,70,0.00,,,0.00,Wunderground v.1.15,2013-08-07 14:25:00,
2013-08-07 09:26:00,84.0,73.2,29.85,SSW,208,0.0,0.0,70,0.00,,---,0.00,VWS V14.01,2013-08-07 14:26:00,
2013-08-07 09:30:00,84.3,73.4,29.85,SE,142,0.0,0.0,70,0.00,,,0.00,Wunderground v.1.15,2013-08-07 14:30:00,
2013-08-07 09:32:00,84.3,73.5,29.85,SE,142,0.0,0.0,70,0.00,,---,0.00,VWS V14.01,2013-08-07 14:32:00,
2013-08-07 09:35:00,84.3,73.4,29.85,SSW,207,0.0,0.0,70,0.00,,,0.00,Wunderground v.1.15,2013-08-07 14:35:00,
2013-08-07 09:37:00,84.5,73.7,29.85,SSW,205,0.0,0.0,70,0.00,,---,0.00,VWS V14.01,2013-08-07 14:37:00,
2013-08-07 09:40:00,84.7,72.5,29.85,SSE,149,0.0,0.0,67,0.00,,,0.00,Wunderground v.1.15,2013-08-07 14:40:00,
2013-08-07 09:42:00,84.7,72.5,29.85,SE,145,0.0,0.0,67,0.00,,---,0.00,VWS V14.01,2013-08-07 14:42:00,
2013-08-07 09:45:00,84.7,72.5,29.85,South,174,0.0,0.0,67,0.00,,,0.00,Wunderground v.1.15,2013-08-07 14:45:00,
2013-08-07 09:47:00,84.9,72.7,29.85,South,174,0.0,0.0,67,0.00,,---,0.00,VWS V14.01,2013-08-07 14:47:00,
2013-08-07 09:50:00,85.1,72.0,29.85,South,184,0.0,0.0,65,0.00,,,0.00,Wunderground v.1.15,2013-08-07 14:50:00,
2013-08-07 09:53:00,85.1,72.9,29.85,SE,139,0.0,0.0,67,0.00,,---,0.00,VWS V14.01,2013-08-07 14:53:00,
2013-08-07 09:55:00,85.1,72.9,29.85,SSE,167,0.0,0.0,67,0.00,,,0.00,Wunderground v.1.15,2013-08-07 14:55:00,
2013-08-07 09:58:00,85.3,73.1,29.85,SSE,166,0.0,0.0,67,0.00,,---,0.00,VWS V14.01,2013-08-07 14:58:00,
2013-08-07 10:00:00,85.5,73.3,29.85,SSW,208,0.0,0.0,67,0.00,,,0.00,Wunderground v.1.15,2013-08-07 15:00:00,
2013-08-07 10:03:00,85.5,73.3,29.85,South,177,0.0,0.0,67,0.00,,---,0.00,VWS V14.01,2013-08-07 15:03:00,
2013-08-07 10:05:00,85.5,73.3,29.85,SSW,198,0.0,0.0,67,0.00,,,0.00,Wunderground v.1.15,2013-08-07 15:05:00,
2013-08-07 10:08:00,85.5,71.9,29.85,SE,142,0.0,0.0,64,0.00,,---,0.00,VWS V14.01,2013-08-07 15:08:00,
2013-08-07 10:10:00,85.5,71.5,29.85,SE,145,0.0,0.0,63,0.00,,,0.00,Wunderground v.1.15,2013-08-07 15:10:00,
2013-08-07 10:13:00,85.7,72.6,29.85,SSW,201,0.0,0.0,65,0.00,,---,0.00,VWS V14.01,2013-08-07 15:13:00,
2013-08-07 10:15:00,85.9,72.8,29.85,SSW,200,0.0,0.0,65,0.00,,,0.00,Wunderground v.1.15,2013-08-07 15:15:00,
2013-08-07 10:18:00,86.1,72.5,29.85,SSW,201,0.0,0.0,64,0.00,,---,0.00,VWS V14.01,2013-08-07 15:18:00,
2013-08-07 10:20:00,86.1,72.5,29.85,South,190,0.0,0.0,64,0.00,,,0.00,Wunderground v.1.15,2013-08-07 15:20:00,
2013-08-07 10:23:00,86.1,72.0,29.85,South,176,0.0,0.0,63,0.00,,---,0.00,VWS V14.01,2013-08-07 15:23:00,
2013-08-07 10:25:00,86.5,72.9,29.85,SSE,166,0.0,0.0,64,0.00,,,0.00,Wunderground v.1.15,2013-08-07 15:25:00,
2013-08-07 10:28:00,86.7,72.1,29.85,South,183,0.0,0.0,62,0.00,,---,0.00,VWS V14.01,2013-08-07 15:28:00,
2013-08-07 10:30:00,86.7,73.1,29.85,SSW,193,0.0,0.0,64,0.00,,,0.00,Wunderground v.1.15,2013-08-07 15:30:00,
2013-08-07 10:33:00,87.0,73.4,29.85,SE,139,0.0,0.0,64,0.00,,---,0.00,VWS V14.01,2013-08-07 15:33:00,
2013-08-07 10:35:00,87.0,71.9,29.85,South,190,0.0,0.0,61,0.00,,,0.00,Wunderground v.1.15,2013-08-07 15:35:00,
2013-08-07 10:38:00,87.4,73.7,29.85,SE,136,0.0,0.0,64,0.00,,---,0.00,VWS V14.01,2013-08-07 15:38:00,
2013-08-07 10:40:00,87.4,73.7,29.85,South,179,0.0,0.0,64,0.00,,,0.00,Wunderground v.1.15,2013-08-07 15:40:00,
2013-08-07 10:43:00,87.8,73.6,29.85,NW,314,0.0,0.0,63,0.00,,---,0.00,VWS V14.01,2013-08-07 15:43:00,
2013-08-07 10:45:00,87.8,73.6,29.85,SE,138,0.0,0.0,63,0.00,,,0.00,Wunderground v.1.15,2013-08-07 15:45:00,
2013-08-07 10:48:00,88.0,72.9,29.85,SE,139,0.0,0.0,61,0.00,,---,0.00,VWS V14.01,2013-08-07 15:48:00,
2013-08-07 10:50:00,88.2,73.0,29.85,SE,145,0.0,0.0,61,0.00,,,0.00,Wunderground v.1.15,2013-08-07 15:50:00,
2013-08-07 10:54:00,88.6,73.4,29.85,SE,140,0.0,0.0,61,0.00,,---,0.00,VWS V14.01,2013-08-07 15:54:00,
2013-08-07 10:55:00,88.6,73.4,29.85,South,173,0.0,0.0,61,0.00,,,0.00,Wunderground v.1.15,2013-08-07 15:55:00,
2013-08-07 10:59:00,88.6,72.4,29.85,South,184,0.0,0.0,59,0.00,,---,0.00,VWS V14.01,2013-08-07 15:59:00,
2013-08-07 11:00:00,88.6,72.4,29.85,SSW,208,0.0,0.0,59,0.00,,,0.00,Wunderground v.1.15,2013-08-07 16:00:00,
2013-08-07 11:04:00,88.8,72.6,29.85,SSE,163,0.0,0.0,59,0.00,,---,0.00,VWS V14.01,2013-08-07 16:04:00,
2013-08-07 11:05:00,88.8,72.6,29.85,SE,139,0.0,0.0,59,0.00,,,0.00,Wunderground v.1.15,2013-08-07 16:05:00,
2013-08-07 11:09:00,89.0,72.8,29.85,SSE,160,0.0,0.0,59,0.00,,---,0.00,VWS V14.01,2013-08-07 16:09:00,
2013-08-07 11:10:00,89.0,72.3,29.85,South,187,0.0,0.0,58,0.00,,,0.00,Wunderground v.1.15,2013-08-07 16:10:00,
2013-08-07 11:14:00,89.5,74.8,29.85,South,183,0.0,0.0,62,0.00,,---,0.00,VWS V14.01,2013-08-07 16:14:00,
2013-08-07 11:15:00,89.7,74.0,29.85,South,183,0.0,0.0,60,0.00,,,0.00,Wunderground v.1.15,2013-08-07 16:15:00,
2013-08-07 11:20:00,89.7,74.0,29.85,West,265,0.0,0.0,60,0.00,,---,0.00,VWS V14.01,2013-08-07 16:20:00,
2013-08-07 11:25:00,89.9,74.2,29.85,West,277,0.0,0.0,60,0.00,,---,0.00,VWS V14.01,2013-08-07 16:25:00,
2013-08-07 11:30:00,90.1,73.8,29.85,South,184,0.0,0.0,59,0.00,,---,0.00,VWS V14.01,2013-08-07 16:30:00,
2013-08-07 11:35:00,89.9,71.0,29.84,South,174,0.0,0.0,54,0.00,,,0.00,Wunderground v.1.15,2013-08-07 16:35:00,
2013-08-07 11:40:00,89.9,72.1,29.84,SW,214,0.0,0.0,56,0.00,,,0.00,Wunderground v.1.15,2013-08-07 16:40:00,
2013-08-07 11:45:00,90.5,73.7,29.84,SSE,164,0.0,0.0,58,0.00,,,0.00,Wunderground v.1.15,2013-08-07 16:45:00,
2013-08-07 11:50:00,91.2,73.8,29.84,South,170,0.0,0.0,57,0.00,,,0.00,Wunderground v.1.15,2013-08-07 16:50:00,
2013-08-07 11:55:00,91.2,73.8,29.84,East,85,0.0,0.0,57,0.00,,,0.00,Wunderground v.1.15,2013-08-07 16:55:00,
2013-08-07 12:00:00,91.6,72.0,29.84,East,98,0.0,0.0,53,0.00,,,0.00,Wunderground v.1.15,2013-08-07 17:00:00,
2013-08-07 12:05:00,91.8,73.3,29.84,South,174,0.0,0.0,55,0.00,,---,0.00,VWS V14.01,2013-08-07 17:05:00,
2013-08-07 12:10:00,92.1,74.1,29.84,SSW,200,0.0,0.0,56,0.00,,,0.00,Wunderground v.1.15,2013-08-07 17:10:00,
2013-08-07 12:15:00,92.1,74.1,29.84,South,181,0.0,0.0,56,0.00,,,0.00,Wunderground v.1.15,2013-08-07 17:15:00,
2013-08-07 12:16:00,92.3,74.3,29.84,South,181,0.0,0.0,56,0.00,,---,0.00,VWS V14.01,2013-08-07 17:16:00,
2013-08-07 12:20:00,92.1,74.1,29.84,SW,219,0.0,0.0,56,0.00,,,0.00,Wunderground v.1.15,2013-08-07 17:20:00,
2013-08-07 12:21:00,92.1,74.2,29.84,SW,219,0.0,0.0,56,0.00,,---,0.00,VWS V14.01,2013-08-07 17:21:00,
2013-08-07 12:25:00,92.1,74.1,29.84,South,181,0.0,0.0,56,0.00,,,0.00,Wunderground v.1.15,2013-08-07 17:25:00,
2013-08-07 12:26:00,92.1,74.2,29.84,South,181,0.0,0.0,56,0.00,,---,0.00,VWS V14.01,2013-08-07 17:26:00,
2013-08-07 12:30:00,92.3,74.3,29.83,South,186,0.0,0.0,56,0.00,,,0.00,Wunderground v.1.15,2013-08-07 17:30:00,
2013-08-07 12:31:00,92.3,74.3,29.83,SE,139,0.0,0.0,56,0.00,,---,0.00,VWS V14.01,2013-08-07 17:31:00,
2013-08-07 12:36:00,92.9,72.7,29.83,WNW,293,0.0,0.0,52,0.00,,---,0.00,VWS V14.01,2013-08-07 17:36:00,
2013-08-07 12:40:00,93.4,74.3,29.83,South,183,0.0,0.0,54,0.00,,,0.00,Wunderground v.1.15,2013-08-07 17:40:00,
2013-08-07 12:41:00,93.4,74.3,29.83,South,183,0.0,0.0,54,0.00,,---,0.00,VWS V14.01,2013-08-07 17:41:00,
2013-08-07 12:45:00,93.6,74.5,29.82,SE,136,0.0,0.0,54,0.00,,,0.00,Wunderground v.1.15,2013-08-07 17:45:00,
2013-08-07 12:46:00,93.6,74.5,29.82,SE,135,0.0,0.0,54,0.00,,---,0.00,VWS V14.01,2013-08-07 17:46:00,
2013-08-07 12:50:00,93.8,74.6,29.82,SE,129,0.0,0.0,54,0.00,,,0.00,Wunderground v.1.15,2013-08-07 17:50:00,
2013-08-07 12:51:00,93.8,74.7,29.82,SW,215,0.0,0.0,54,0.00,,---,0.00,VWS V14.01,2013-08-07 17:51:00,
2013-08-07 12:55:00,94.3,75.1,29.82,SW,215,0.0,0.0,54,0.00,,,0.00,Wunderground v.1.15,2013-08-07 17:55:00,
2013-08-07 12:56:00,94.3,75.1,29.82,SW,215,0.0,0.0,54,0.00,,---,0.00,VWS V14.01,2013-08-07 17:56:00,
2013-08-07 13:00:00,94.3,75.1,29.82,SW,215,0.0,0.0,54,0.00,,,0.00,Wunderground v.1.15,2013-08-07 18:00:00,
2013-08-07 13:02:00,94.3,75.1,29.82,ESE,109,0.0,0.0,54,0.00,,---,0.00,VWS V14.01,2013-08-07 18:02:00,
2013-08-07 13:05:00,94.9,75.1,29.81,East,99,0.0,0.0,53,0.00,,,0.00,Wunderground v.1.15,2013-08-07 18:05:00,
2013-08-07 13:07:00,94.9,75.1,29.81,East,97,0.0,0.0,53,0.00,,---,0.00,VWS V14.01,2013-08-07 18:07:00,
2013-08-07 13:10:00,94.9,75.1,29.81,SE,145,0.0,0.0,53,0.00,,,0.00,Wunderground v.1.15,2013-08-07 18:10:00,
2013-08-07 13:12:00,94.9,75.1,29.81,SE,146,0.0,0.0,53,0.00,,---,0.00,VWS V14.01,2013-08-07 18:12:00,
2013-08-07 13:15:00,95.1,75.3,29.81,South,173,0.0,0.0,53,0.00,,,0.00,Wunderground v.1.15,2013-08-07 18:15:00,
2013-08-07 13:17:00,95.1,74.7,29.81,South,188,0.0,0.0,52,0.00,,---,0.00,VWS V14.01,2013-08-07 18:17:00,
2013-08-07 13:20:00,95.4,75.0,29.81,South,180,0.0,0.0,52,0.00,,,0.00,Wunderground v.1.15,2013-08-07 18:20:00,
2013-08-07 13:22:00,95.4,75.0,29.81,South,179,0.0,0.0,52,0.00,,---,0.00,VWS V14.01,2013-08-07 18:22:00,
2013-08-07 13:25:00,95.4,73.2,29.81,ENE,57,0.0,0.0,49,0.00,,,0.00,Wunderground v.1.15,2013-08-07 18:25:00,
2013-08-07 13:27:00,94.9,73.4,29.81,South,181,0.0,0.0,50,0.00,,---,0.00,VWS V14.01,2013-08-07 18:27:00,
2013-08-07 13:30:00,94.9,73.4,29.80,NE,54,0.0,0.0,50,0.00,,,0.00,Wunderground v.1.15,2013-08-07 18:30:00,
2013-08-07 13:33:00,94.9,73.4,29.80,SE,139,0.0,0.0,50,0.00,,---,0.00,VWS V14.01,2013-08-07 18:33:00,
2013-08-07 13:35:00,94.9,75.7,29.80,East,88,0.0,0.0,54,0.00,,,0.00,Wunderground v.1.15,2013-08-07 18:35:00,
2013-08-07 13:38:00,94.7,73.2,29.80,East,84,1.0,5.0,50,0.00,,---,0.00,VWS V14.01,2013-08-07 18:38:00,
2013-08-07 13:40:00,94.7,73.2,29.80,South,179,1.0,3.0,50,0.00,,,0.00,Wunderground v.1.15,2013-08-07 18:40:00,
2013-08-07 13:43:00,95.1,74.1,29.80,South,179,1.0,3.0,51,0.00,,---,0.00,VWS V14.01,2013-08-07 18:43:00,
2013-08-07 13:45:00,95.1,75.3,29.80,South,177,2.0,3.0,53,0.00,,,0.00,Wunderground v.1.15,2013-08-07 18:45:00,
2013-08-07 13:49:00,95.6,73.4,29.80,South,174,2.0,5.0,49,0.00,,---,0.00,VWS V14.01,2013-08-07 18:49:00,
2013-08-07 13:50:00,95.6,73.4,29.80,South,190,2.0,7.0,49,0.00,,,0.00,Wunderground v.1.15,2013-08-07 18:50:00,
2013-08-07 13:54:00,95.6,73.4,29.80,South,179,1.0,7.0,49,0.00,,---,0.00,VWS V14.01,2013-08-07 18:54:00,
2013-08-07 13:55:00,95.6,73.4,29.80,South,179,2.0,7.0,49,0.00,,,0.00,Wunderground v.1.15,2013-08-07 18:55:00,
2013-08-07 13:59:00,95.6,73.4,29.79,NE,47,2.0,7.0,49,0.00,,---,0.00,VWS V14.01,2013-08-07 18:59:00,
2013-08-07 14:00:00,95.6,73.4,29.79,NE,47,1.0,2.0,49,0.00,,,0.00,Wunderground v.1.15,2013-08-07 19:00:00,
2013-08-07 14:04:00,95.6,75.2,29.79,SW,219,3.0,5.0,52,0.00,,---,0.00,VWS V14.01,2013-08-07 19:04:00,
2013-08-07 14:05:00,95.6,75.2,29.79,SE,133,2.0,2.0,52,0.00,,,0.00,Wunderground v.1.15,2013-08-07 19:05:00,
2013-08-07 14:09:00,95.9,76.0,29.79,ENE,70,2.0,5.0,53,0.00,,---,0.00,VWS V14.01,2013-08-07 19:09:00,
2013-08-07 14:10:00,95.9,76.0,29.79,ENE,70,2.0,2.0,53,0.00,,,0.00,Wunderground v.1.15,2013-08-07 19:10:00,
2013-08-07 14:14:00,95.4,75.6,29.79,ENE,57,6.0,7.0,53,0.00,,---,0.00,VWS V14.01,2013-08-07 19:14:00,
2013-08-07 14:15:00,95.4,75.6,29.79,East,80,4.0,4.0,53,0.00,,,0.00,Wunderground v.1.15,2013-08-07 19:15:00,
2013-08-07 14:19:00,95.1,74.1,29.79,North,2,1.0,7.0,51,0.00,,---,0.00,VWS V14.01,2013-08-07 19:19:00,
2013-08-07 14:20:00,95.4,74.4,29.79,ENE,73,4.0,5.0,51,0.00,,,0.00,Wunderground v.1.15,2013-08-07 19:20:00,
2013-08-07 14:24:00,95.1,73.6,29.79,NE,51,0.0,8.0,50,0.00,,---,0.00,VWS V14.01,2013-08-07 19:24:00,
2013-08-07 14:25:00,95.1,73.5,29.79,ENE,68,3.0,6.0,50,0.00,,,0.00,Wunderground v.1.15,2013-08-07 19:25:00,
2013-08-07 14:29:00,95.1,74.7,29.78,NE,36,2.0,8.0,52,0.00,,---,0.00,VWS V14.01,2013-08-07 19:29:00,
2013-08-07 14:30:00,95.1,74.7,29.78,ENE,73,4.0,5.0,52,0.00,,,0.00,Wunderground v.1.15,2013-08-07 19:30:00,
2013-08-07 14:34:00,95.1,74.7,29.78,NNE,32,2.0,5.0,52,0.00,,---,0.00,VWS V14.01,2013-08-07 19:34:00,
2013-08-07 14:35:00,95.4,75.0,29.78,ENE,60,3.0,6.0,52,0.00,,,0.00,Wunderground v.1.15,2013-08-07 19:35:00,
2013-08-07 14:39:00,95.6,75.2,29.78,SSW,203,1.0,6.0,52,0.00,,---,0.00,VWS V14.01,2013-08-07 19:39:00,
2013-08-07 14:40:00,95.6,75.2,29.78,South,176,2.0,2.0,52,0.00,,,0.00,Wunderground v.1.15,2013-08-07 19:40:00,
2013-08-07 14:45:00,95.9,75.4,29.78,NE,44,3.0,5.0,52,0.00,,---,0.00,VWS V14.01,2013-08-07 19:45:00,
2013-08-07 14:50:00,96.1,73.8,29.78,SW,231,2.0,2.0,49,0.00,,,0.00,Wunderground v.1.15,2013-08-07 19:50:00,
2013-08-07 14:55:00,96.3,75.2,29.78,NE,53,2.0,5.0,51,0.00,,,0.00,Wunderground v.1.15,2013-08-07 19:55:00,
2013-08-07 15:00:00,96.1,76.2,29.78,ENE,64,2.0,5.0,53,0.00,,,0.00,Wunderground v.1.15,2013-08-07 20:00:00,
2013-08-07 15:05:00,95.6,75.8,29.77,NE,39,5.0,8.0,53,0.00,,---,0.00,VWS V14.01,2013-08-07 20:05:00,
2013-08-07 15:10:00,95.4,75.0,29.77,NE,46,1.0,1.0,52,0.00,,---,0.00,VWS V14.01,2013-08-07 20:10:00,
2013-08-07 15:15:00,95.4,75.0,29.78,NE,53,3.0,5.0,52,0.00,,,0.00,Wunderground v.1.15,2013-08-07 20:15:00,
2013-08-07 15:20:00,95.9,75.4,29.77,ENE,70,3.0,3.0,52,0.00,,,0.00,Wunderground v.1.15,2013-08-07 20:20:00,
2013-08-07 15:25:00,95.4,75.0,29.77,ENE,68,3.0,8.0,52,0.00,,---,0.00,VWS V14.01,2013-08-07 20:25:00,
2013-08-07 15:30:00,95.4,77.2,29.77,East,85,4.0,4.0,56,0.00,,,0.00,Wunderground v.1.15,2013-08-07 20:30:00,
2013-08-07 15:35:00,95.4,77.2,29.77,ENE,66,1.0,7.0,56,0.00,,---,0.00,VWS V14.01,2013-08-07 20:35:00,
2013-08-07 15:40:00,95.9,77.7,29.76,ESE,111,3.0,3.0,56,0.00,,,0.00,Wunderground v.1.15,2013-08-07 20:40:00,
2013-08-07 15:45:00,96.3,75.8,29.76,ENE,74,2.0,7.0,52,0.00,,,0.00,Wunderground v.1.15,2013-08-07 20:45:00,
2013-08-07 15:47:00,96.1,73.2,29.76,NE,56,3.0,8.0,48,0.00,,---,0.00,VWS V14.01,2013-08-07 20:47:00,
2013-08-07 15:50:00,96.3,73.4,29.76,SE,139,2.0,2.0,48,0.00,,,0.00,Wunderground v.1.15,2013-08-07 20:50:00,
2013-08-07 15:52:00,96.3,73.4,29.76,SE,143,1.0,2.0,48,0.00,,---,0.00,VWS V14.01,2013-08-07 20:52:00,
2013-08-07 15:55:00,97.1,75.4,29.76,ENE,73,2.0,3.0,50,0.00,,,0.00,Wunderground v.1.15,2013-08-07 20:55:00,
2013-08-07 15:57:00,97.1,74.8,29.76,ENE,70,3.0,5.0,49,0.00,,---,0.00,VWS V14.01,2013-08-07 20:57:00,
2013-08-07 16:00:00,97.1,74.8,29.75,NE,50,2.0,3.0,49,0.00,,,0.00,Wunderground v.1.15,2013-08-07 21:00:00,
2013-08-07 16:03:00,96.8,74.5,29.75,ENE,57,5.0,7.0,49,0.00,,---,0.00,VWS V14.01,2013-08-07 21:03:00,
2013-08-07 16:05:00,96.6,74.3,29.75,NE,43,4.0,4.0,49,0.00,,,0.00,Wunderground v.1.15,2013-08-07 21:05:00,
2013-08-07 16:08:00,96.6,76.1,29.75,ENE,64,1.0,7.0,52,0.00,,---,0.00,VWS V14.01,2013-08-07 21:08:00,
2013-08-07 16:13:00,96.3,73.4,29.75,ENE,74,7.0,7.0,48,0.00,,---,0.00,VWS V14.01,2013-08-07 21:13:00,
2013-08-07 16:15:00,96.1,73.2,29.75,NE,49,4.0,5.0,48,0.00,,,0.00,Wunderground v.1.15,2013-08-07 21:15:00,
2013-08-07 16:18:00,96.1,73.2,29.76,ENE,78,2.0,11.0,48,0.00,,---,0.00,VWS V14.01,2013-08-07 21:18:00,
2013-08-07 16:20:00,96.1,73.2,29.76,East,84,4.0,4.0,48,0.00,,,0.00,Wunderground v.1.15,2013-08-07 21:20:00,
2013-08-07 16:23:00,96.1,75.1,29.76,ENE,77,3.0,6.0,51,0.00,,---,0.00,VWS V14.01,2013-08-07 21:23:00,
2013-08-07 16:25:00,96.1,75.0,29.76,ENE,64,3.0,6.0,51,0.00,,,0.00,Wunderground v.1.15,2013-08-07 21:25:00,
2013-08-07 16:28:00,96.1,75.1,29.76,East,94,3.0,8.0,51,0.00,,---,0.00,VWS V14.01,2013-08-07 21:28:00,
2013-08-07 16:30:00,96.1,75.0,29.76,East,98,4.0,4.0,51,0.00,,,0.00,Wunderground v.1.15,2013-08-07 21:30:00,
2013-08-07 16:33:00,96.1,75.1,29.75,ENE,60,3.0,5.0,51,0.00,,---,0.00,VWS V14.01,2013-08-07 21:33:00,
2013-08-07 16:35:00,96.1,75.0,29.75,ENE,63,3.0,4.0,51,0.00,,,0.00,Wunderground v.1.15,2013-08-07 21:35:00,
2013-08-07 16:38:00,96.1,75.6,29.75,NE,37,2.0,6.0,52,0.00,,---,0.00,VWS V14.01,2013-08-07 21:38:00,
2013-08-07 16:43:00,96.3,76.4,29.75,SE,135,2.0,5.0,53,0.00,,---,0.00,VWS V14.01,2013-08-07 21:43:00,
2013-08-07 16:45:00,96.3,76.4,29.75,East,92,3.0,3.0,53,0.00,,,0.00,Wunderground v.1.15,2013-08-07 21:45:00,
2013-08-07 16:48:00,96.1,76.2,29.75,ENE,74,7.0,7.0,53,0.00,,---,0.00,VWS V14.01,2013-08-07 21:48:00,
2013-08-07 16:50:00,96.1,76.2,29.75,NE,54,3.0,3.0,53,0.00,,,0.00,Wunderground v.1.15,2013-08-07 21:50:00,
2013-08-07 16:53:00,95.9,76.0,29.75,ENE,68,1.0,8.0,53,0.00,,---,0.00,VWS V14.01,2013-08-07 21:53:00,
2013-08-07 16:55:00,95.9,76.0,29.75,NE,56,4.0,6.0,53,0.00,,,0.00,Wunderground v.1.15,2013-08-07 21:55:00,
2013-08-07 16:58:00,95.9,76.0,29.75,NNE,27,1.0,8.0,53,0.00,,---,0.00,VWS V14.01,2013-08-07 21:58:00,
2013-08-07 17:00:00,95.9,76.0,29.75,NNE,27,3.0,3.0,53,0.00,,,0.00,Wunderground v.1.15,2013-08-07 22:00:00,
2013-08-07 17:03:00,95.9,76.0,29.75,NNE,27,1.0,1.0,53,0.00,,---,0.00,VWS V14.01,2013-08-07 22:03:00,
2013-08-07 17:05:00,95.9,76.0,29.75,NE,40,2.0,3.0,53,0.00,,,0.00,Wunderground v.1.15,2013-08-07 22:05:00,
2013-08-07 17:09:00,95.9,74.9,29.75,NE,42,0.0,5.0,51,0.00,,---,0.00,VWS V14.01,2013-08-07 22:09:00,
2013-08-07 17:10:00,95.9,74.9,29.75,ENE,70,2.0,2.0,51,0.00,,,0.00,Wunderground v.1.15,2013-08-07 22:10:00,
2013-08-07 17:14:00,95.9,75.4,29.75,ENE,63,3.0,11.0,52,0.00,,---,0.00,VWS V14.01,2013-08-07 22:14:00,
2013-08-07 17:15:00,95.9,75.4,29.75,East,81,3.0,5.0,52,0.00,,,0.00,Wunderground v.1.15,2013-08-07 22:15:00,
2013-08-07 17:19:00,95.6,75.2,29.75,East,91,3.0,11.0,52,0.00,,---,0.00,VWS V14.01,2013-08-07 22:19:00,
2013-08-07 17:20:00,95.6,75.2,29.75,East,91,4.0,4.0,52,0.00,,,0.00,Wunderground v.1.15,2013-08-07 22:20:00,
2013-08-07 17:24:00,95.6,75.2,29.75,East,80,2.0,3.0,52,0.00,,---,0.00,VWS V14.01,2013-08-07 22:24:00,
2013-08-07 17:25:00,95.6,75.2,29.75,East,80,3.0,4.0,52,0.00,,,0.00,Wunderground v.1.15,2013-08-07 22:25:00,
2013-08-07 17:29:00,95.6,75.2,29.75,ENE,68,0.0,3.0,52,0.00,,---,0.00,VWS V14.01,2013-08-07 22:29:00,
2013-08-07 17:30:00,95.6,75.2,29.75,ENE,68,0.0,0.0,52,0.00,,,0.00,Wunderground v.1.15,2013-08-07 22:30:00,
2013-08-07 17:34:00,95.6,75.2,29.75,NE,50,2.0,2.0,52,0.00,,---,0.00,VWS V14.01,2013-08-07 22:34:00,
2013-08-07 17:35:00,95.6,75.2,29.75,NE,50,2.0,2.0,52,0.00,,,0.00,Wunderground v.1.15,2013-08-07 22:35:00,
2013-08-07 17:40:00,95.4,75.0,29.75,NE,56,2.0,2.0,52,0.00,,---,0.00,VWS V14.01,2013-08-07 22:40:00,
2013-08-07 17:45:00,95.4,75.0,29.75,NE,51,2.0,2.0,52,0.00,,---,0.00,VWS V14.01,2013-08-07 22:45:00,
2013-08-07 17:50:00,94.9,74.5,29.75,East,81,2.0,2.0,52,0.00,,---,0.00,VWS V14.01,2013-08-07 22:50:00,
2013-08-07 17:55:00,94.9,74.5,29.75,ENE,75,2.0,2.0,52,0.00,,,0.00,Wunderground v.1.15,2013-08-07 22:55:00,
2013-08-07 18:00:00,94.7,74.3,29.75,NE,51,2.0,2.0,52,0.00,,,0.00,Wunderground v.1.15,2013-08-07 23:00:00,
2013-08-07 18:01:00,94.7,74.3,29.75,NE,51,2.0,2.0,52,0.00,,---,0.00,VWS V14.01,2013-08-07 23:01:00,
2013-08-07 18:06:00,94.5,76.4,29.75,East,84,2.0,3.0,56,0.00,,---,0.00,VWS V14.01,2013-08-07 23:06:00,
2013-08-07 18:10:00,94.3,76.2,29.74,ENE,60,2.0,2.0,56,0.00,,,0.00,Wunderground v.1.15,2013-08-07 23:10:00,
2013-08-07 18:11:00,94.3,76.2,29.74,ENE,60,2.0,2.0,56,0.00,,---,0.00,VWS V14.01,2013-08-07 23:11:00,
2013-08-07 18:15:00,94.3,76.2,29.74,ENE,77,2.0,2.0,56,0.00,,,0.00,Wunderground v.1.15,2013-08-07 23:15:00,
2013-08-07 18:16:00,94.0,75.9,29.74,ENE,77,2.0,5.0,56,0.00,,---,0.00,VWS V14.01,2013-08-07 23:16:00,
2013-08-07 18:20:00,93.8,75.7,29.74,East,97,2.0,2.0,56,0.00,,,0.00,Wunderground v.1.15,2013-08-07 23:20:00,
2013-08-07 18:21:00,93.8,75.7,29.74,East,97,1.0,2.0,56,0.00,,---,0.00,VWS V14.01,2013-08-07 23:21:00,
2013-08-07 18:26:00,93.8,76.3,29.74,East,87,2.0,5.0,57,0.00,,---,0.00,VWS V14.01,2013-08-07 23:26:00,
2013-08-07 18:30:00,93.6,76.6,29.74,ENE,73,2.0,3.0,58,0.00,,,0.00,Wunderground v.1.15,2013-08-07 23:30:00,
2013-08-07 18:31:00,93.6,76.6,29.74,ENE,77,5.0,5.0,58,0.00,,---,0.00,VWS V14.01,2013-08-07 23:31:00,
2013-08-07 18:35:00,93.2,77.2,29.74,ENE,66,3.0,3.0,60,0.00,,,0.00,Wunderground v.1.15,2013-08-07 23:35:00,
2013-08-07 18:37:00,92.9,77.0,29.74,NE,54,2.0,5.0,60,0.00,,---,0.00,VWS V14.01,2013-08-07 23:37:00,
2013-08-07 18:40:00,92.7,76.8,29.74,ENE,77,3.0,3.0,60,0.00,,,0.00,Wunderground v.1.15,2013-08-07 23:40:00,
2013-08-07 18:43:00,92.7,76.8,29.74,ENE,77,2.0,2.0,60,0.00,,---,0.00,VWS V14.01,2013-08-07 23:43:00,
2013-08-07 18:48:00,92.5,77.6,29.73,ENE,77,0.0,2.0,62,0.00,,---,0.00,VWS V14.01,2013-08-07 23:48:00,
2013-08-07 18:50:00,92.5,77.6,29.73,ENE,77,1.0,1.0,62,0.00,,,0.00,Wunderground v.1.15,2013-08-07 23:50:00,
2013-08-07 18:53:00,92.5,77.6,29.73,ENE,77,0.0,0.0,62,0.00,,---,0.00,VWS V14.01,2013-08-07 23:53:00,
2013-08-07 18:55:00,92.5,77.6,29.73,ENE,77,1.0,1.0,62,0.00,,,0.00,Wunderground v.1.15,2013-08-07 23:55:00,
2013-08-07 18:58:00,92.3,77.4,29.73,ENE,77,1.0,2.0,62,0.00,,---,0.00,VWS V14.01,2013-08-07 23:58:00,
2013-08-07 19:00:00,92.3,77.9,29.73,ENE,77,1.0,1.0,63,0.00,,,0.00,Wunderground v.1.15,2013-08-08 00:00:00,
2013-08-07 19:03:00,92.1,77.7,29.73,ENE,77,1.0,2.0,63,0.00,,---,0.00,VWS V14.01,2013-08-08 00:03:00,
2013-08-07 19:05:00,92.1,77.7,29.73,ENE,77,1.0,1.0,63,0.00,,,0.00,Wunderground v.1.15,2013-08-08 00:05:00,
2013-08-07 19:08:00,92.1,78.2,29.73,ENE,77,0.0,2.0,64,0.00,,---,0.00,VWS V14.01,2013-08-08 00:08:00,
2013-08-07 19:10:00,92.1,78.6,29.73,ENE,77,0.0,0.0,65,0.00,,,0.00,Wunderground v.1.15,2013-08-08 00:10:00,
2013-08-07 19:14:00,91.8,78.4,29.73,ENE,77,1.0,1.0,65,0.00,,---,0.00,VWS V14.01,2013-08-08 00:14:00,
2013-08-07 19:15:00,91.8,78.4,29.73,ENE,77,0.0,1.0,65,0.00,,,0.00,Wunderground v.1.15,2013-08-08 00:15:00,
2013-08-07 19:19:00,91.4,77.5,29.73,ENE,77,0.0,1.0,64,0.00,,---,0.00,VWS V14.01,2013-08-08 00:19:00,
2013-08-07 19:24:00,91.0,77.6,29.73,ENE,77,0.0,1.0,65,0.00,,---,0.00,VWS V14.01,2013-08-08 00:24:00,
2013-08-07 19:25:00,91.0,77.6,29.73,ENE,77,1.0,1.0,65,0.00,,,0.00,Wunderground v.1.15,2013-08-08 00:25:00,
2013-08-07 19:29:00,90.7,77.8,29.73,ENE,77,0.0,1.0,66,0.00,,---,0.00,VWS V14.01,2013-08-08 00:29:00,
2013-08-07 19:30:00,90.7,77.8,29.73,ENE,77,0.0,0.0,66,0.00,,,0.00,Wunderground v.1.15,2013-08-08 00:30:00,
2013-08-07 19:34:00,90.3,77.9,29.73,ENE,77,0.0,1.0,67,0.00,,---,0.00,VWS V14.01,2013-08-08 00:34:00,
2013-08-07 19:35:00,90.3,77.8,29.73,ENE,77,1.0,1.0,67,0.00,,,0.00,Wunderground v.1.15,2013-08-08 00:35:00,
2013-08-07 19:39:00,89.9,77.5,29.73,ENE,77,0.0,2.0,67,0.00,,---,0.00,VWS V14.01,2013-08-08 00:39:00,
2013-08-07 19:40:00,89.9,77.9,29.73,ENE,77,1.0,1.0,68,0.00,,,0.00,Wunderground v.1.15,2013-08-08 00:40:00,
2013-08-07 19:45:00,89.7,77.7,29.74,ENE,77,0.0,1.0,68,0.00,,---,0.00,VWS V14.01,2013-08-08 00:45:00,
2013-08-07 19:50:00,89.7,77.7,29.74,ENE,77,0.0,1.0,68,0.00,,---,0.00,VWS V14.01,2013-08-08 00:50:00,
2013-08-07 19:55:00,89.0,77.1,29.74,ENE,77,0.0,2.0,68,0.00,,---,0.00,VWS V14.01,2013-08-08 00:55:00,
2013-08-07 20:00:00,88.6,77.6,29.74,ENE,77,0.0,0.0,70,0.00,,,0.00,Wunderground v.1.15,2013-08-08 01:00:00,
2013-08-07 20:05:00,88.4,77.4,29.73,ENE,77,0.0,0.0,70,0.00,,,0.00,Wunderground v.1.15,2013-08-08 01:05:00,
2013-08-07 20:10:00,88.0,77.0,29.74,ENE,77,0.0,0.0,70,0.00,,,0.00,Wunderground v.1.15,2013-08-08 01:10:00,
2013-08-07 20:15:00,88.0,77.8,29.74,ENE,77,0.0,0.0,72,0.00,,,0.00,Wunderground v.1.15,2013-08-08 01:15:00,
2013-08-07 20:20:00,87.2,77.1,29.74,ENE,77,0.0,0.0,72,0.00,,,0.00,Wunderground v.1.15,2013-08-08 01:20:00,
2013-08-07 20:25:00,86.7,76.6,29.74,ENE,77,0.0,0.0,72,0.00,,,0.00,Wunderground v.1.15,2013-08-08 01:25:00,
2013-08-07 20:26:00,86.7,76.6,29.74,ENE,77,0.0,0.0,72,0.00,,---,0.00,VWS V14.01,2013-08-08 01:26:00,
2013-08-07 20:30:00,86.3,76.2,29.74,ENE,77,0.0,1.0,72,0.00,,,0.00,Wunderground v.1.15,2013-08-08 01:30:00,
2013-08-07 20:31:00,86.3,76.2,29.74,ENE,77,1.0,1.0,72,0.00,,---,0.00,VWS V14.01,2013-08-08 01:31:00,
2013-08-07 20:35:00,86.3,76.2,29.74,ENE,77,0.0,1.0,72,0.00,,,0.00,Wunderground v.1.15,2013-08-08 01:35:00,
2013-08-07 20:36:00,86.3,76.2,29.74,ENE,77,0.0,1.0,72,0.00,,---,0.00,VWS V14.01,2013-08-08 01:36:00,
2013-08-07 20:40:00,85.3,75.2,29.75,ENE,77,0.0,0.0,72,0.00,,,0.00,Wunderground v.1.15,2013-08-08 01:40:00,
2013-08-07 20:42:00,85.3,75.2,29.75,ENE,77,0.0,0.0,72,0.00,,---,0.00,VWS V14.01,2013-08-08 01:42:00,
2013-08-07 20:45:00,84.9,76.5,29.75,ENE,77,0.0,0.0,76,0.00,,,0.00,Wunderground v.1.15,2013-08-08 01:45:00,
2013-08-07 20:47:00,84.9,76.9,29.74,ENE,77,0.0,2.0,77,0.00,,---,0.00,VWS V14.01,2013-08-08 01:47:00,
2013-08-07 20:50:00,84.7,76.7,29.75,ENE,77,0.0,0.0,77,0.00,,,0.00,Wunderground v.1.15,2013-08-08 01:50:00,
2013-08-07 20:52:00,84.7,76.7,29.75,ENE,77,0.0,0.0,77,0.00,,---,0.00,VWS V14.01,2013-08-08 01:52:00,
2013-08-07 20:55:00,84.7,76.7,29.75,ENE,75,0.0,0.0,77,0.00,,,0.00,Wunderground v.1.15,2013-08-08 01:55:00,
2013-08-07 20:57:00,84.3,76.3,29.75,ENE,75,0.0,1.0,77,0.00,,---,0.00,VWS V14.01,2013-08-08 01:57:00,
2013-08-07 21:00:00,84.1,76.1,29.75,ENE,75,0.0,0.0,77,0.00,,,0.00,Wunderground v.1.15,2013-08-08 02:00:00,
2013-08-07 21:03:00,84.1,76.1,29.75,ENE,75,0.0,0.0,77,0.00,,---,0.00,VWS V14.01,2013-08-08 02:03:00,
2013-08-07 21:05:00,84.0,76.0,29.75,ENE,75,0.0,0.0,77,0.00,,,0.00,Wunderground v.1.15,2013-08-08 02:05:00,
2013-08-07 21:08:00,84.0,76.0,29.75,ENE,75,0.0,0.0,77,0.00,,---,0.00,VWS V14.01,2013-08-08 02:08:00,
2013-08-07 21:10:00,83.8,75.8,29.75,ENE,75,0.0,0.0,77,0.00,,,0.00,Wunderground v.1.15,2013-08-08 02:10:00,
2013-08-07 21:13:00,83.8,75.8,29.75,ENE,75,0.0,0.0,77,0.00,,---,0.00,VWS V14.01,2013-08-08 02:13:00,
2013-08-07 21:15:00,83.8,75.8,29.75,ENE,75,0.0,0.0,77,0.00,,,0.00,Wunderground v.1.15,2013-08-08 02:15:00,
2013-08-07 21:18:00,83.8,76.2,29.75,ENE,74,1.0,1.0,78,0.00,,---,0.00,VWS V14.01,2013-08-08 02:18:00,
2013-08-07 21:20:00,83.6,76.0,29.75,ENE,74,0.0,0.0,78,0.00,,,0.00,Wunderground v.1.15,2013-08-08 02:20:00,
2013-08-07 21:23:00,83.4,75.8,29.75,ENE,74,0.0,0.0,78,0.00,,---,0.00,VWS V14.01,2013-08-08 02:23:00,
2013-08-07 21:28:00,83.4,76.2,29.76,ENE,74,0.0,0.0,79,0.00,,---,0.00,VWS V14.01,2013-08-08 02:28:00,
2013-08-07 21:30:00,83.2,76.0,29.76,ENE,74,0.0,0.0,79,0.00,,,0.00,Wunderground v.1.15,2013-08-08 02:30:00,
2013-08-07 21:33:00,83.2,76.0,29.76,ENE,74,0.0,0.0,79,0.00,,---,0.00,VWS V14.01,2013-08-08 02:33:00,
2013-08-07 21:35:00,83.0,75.8,29.76,ENE,74,0.0,0.0,79,0.00,,,0.00,Wunderground v.1.15,2013-08-08 02:35:00,
2013-08-07 21:38:00,83.0,75.8,29.76,ENE,74,0.0,0.0,79,0.00,,---,0.00,VWS V14.01,2013-08-08 02:38:00,
2013-08-07 21:40:00,83.0,75.8,29.76,ENE,74,0.0,1.0,79,0.00,,,0.00,Wunderground v.1.15,2013-08-08 02:40:00,
2013-08-07 21:43:00,82.8,75.6,29.76,ENE,74,0.0,1.0,79,0.00,,---,0.00,VWS V14.01,2013-08-08 02:43:00,
2013-08-07 21:45:00,82.8,76.0,29.76,ENE,74,0.0,1.0,80,0.00,,,0.00,Wunderground v.1.15,2013-08-08 02:45:00,
2013-08-07 21:48:00,82.6,75.8,29.77,ENE,74,0.0,1.0,80,0.00,,---,0.00,VWS V14.01,2013-08-08 02:48:00,
2013-08-07 21:50:00,82.6,75.8,29.77,ENE,74,0.0,0.0,80,0.00,,,0.00,Wunderground v.1.15,2013-08-08 02:50:00,
2013-08-07 21:53:00,82.6,75.8,29.77,ENE,74,0.0,0.0,80,0.00,,---,0.00,VWS V14.01,2013-08-08 02:53:00,
2013-08-07 21:55:00,82.4,75.6,29.77,ENE,74,0.0,0.0,80,0.00,,,0.00,Wunderground v.1.15,2013-08-08 02:55:00,
2013-08-07 21:58:00,82.4,75.6,29.77,ENE,74,0.0,1.0,80,0.00,,---,0.00,VWS V14.01,2013-08-08 02:58:00,
2013-08-07 22:00:00,82.4,75.6,29.77,ENE,74,0.0,0.0,80,0.00,,,0.00,Wunderground v.1.15,2013-08-08 03:00:00,
2013-08-07 22:03:00,82.4,75.6,29.77,NE,42,0.0,1.0,80,0.00,,---,0.00,VWS V14.01,2013-08-08 03:03:00,
2013-08-07 22:05:00,82.4,75.6,29.77,NE,42,0.0,0.0,80,0.00,,,0.00,Wunderground v.1.15,2013-08-08 03:05:00,
2013-08-07 22:08:00,82.2,75.4,29.77,NE,42,0.0,1.0,80,0.00,,---,0.00,VWS V14.01,2013-08-08 03:08:00,
2013-08-07 22:10:00,82.2,75.4,29.77,NE,42,0.0,1.0,80,0.00,,,0.00,Wunderground v.1.15,2013-08-08 03:10:00,
2013-08-07 22:13:00,82.2,75.4,29.77,NE,36,1.0,1.0,80,0.00,,---,0.00,VWS V14.01,2013-08-08 03:13:00,
2013-08-07 22:15:00,82.2,75.4,29.77,NE,36,0.0,1.0,80,0.00,,,0.00,Wunderground v.1.15,2013-08-08 03:15:00,
2013-08-07 22:18:00,82.0,75.2,29.77,NNW,331,0.0,2.0,80,0.00,,---,0.00,VWS V14.01,2013-08-08 03:18:00,
2013-08-07 22:20:00,82.0,75.2,29.77,NNW,331,0.0,0.0,80,0.00,,,0.00,Wunderground v.1.15,2013-08-08 03:20:00,
2013-08-07 22:23:00,82.0,75.2,29.77,NNW,331,0.0,0.0,80,0.00,,---,0.00,VWS V14.01,2013-08-08 03:23:00,
2013-08-07 22:25:00,82.0,74.8,29.77,NNW,331,0.0,0.0,79,0.00,,,0.00,Wunderground v.1.15,2013-08-08 03:25:00,
2013-08-07 22:29:00,82.0,75.2,29.77,NNW,331,0.0,0.0,80,0.00,,---,0.00,VWS V14.01,2013-08-08 03:29:00,
2013-08-07 22:30:00,82.0,75.2,29.77,NNW,331,0.0,0.0,80,0.00,,,0.00,Wunderground v.1.15,2013-08-08 03:30:00,
2013-08-07 22:34:00,82.0,74.8,29.78,NNW,331,0.0,0.0,79,0.00,,---,0.00,VWS V14.01,2013-08-08 03:34:00,
2013-08-07 22:35:00,82.0,74.8,29.78,NNW,331,0.0,0.0,79,0.00,,,0.00,Wunderground v.1.15,2013-08-08 03:35:00,
2013-08-07 22:39:00,82.0,74.8,29.78,NNW,331,0.0,0.0,79,0.00,,---,0.00,VWS V14.01,2013-08-08 03:39:00,
2013-08-07 22:44:00,82.0,74.8,29.78,NNW,331,0.0,0.0,79,0.00,,---,0.00,VWS V14.01,2013-08-08 03:44:00,
2013-08-07 22:45:00,82.0,74.8,29.78,NNW,331,0.0,0.0,79,0.00,,,0.00,Wunderground v.1.15,2013-08-08 03:45:00,
2013-08-07 22:49:00,81.8,74.7,29.78,NNW,331,0.0,0.0,79,0.00,,---,0.00,VWS V14.01,2013-08-08 03:49:00,
2013-08-07 22:50:00,81.8,74.6,29.78,NNW,331,0.0,0.0,79,0.00,,,0.00,Wunderground v.1.15,2013-08-08 03:50:00,
2013-08-07 22:54:00,81.8,74.7,29.78,NNW,331,0.0,0.0,79,0.00,,---,0.00,VWS V14.01,2013-08-08 03:54:00,
2013-08-07 22:55:00,81.8,74.6,29.78,NNW,331,0.0,0.0,79,0.00,,,0.00,Wunderground v.1.15,2013-08-08 03:55:00,
2013-08-07 23:00:00,81.8,74.7,29.78,NNW,331,0.0,0.0,79,0.00,,---,0.00,VWS V14.01,2013-08-08 04:00:00,
2013-08-07 23:01:00,81.8,74.7,29.78,NNW,331,0.0,0.0,79,0.00,,---,0.00,VWS V14.01,2013-08-08 04:01:00,
2013-08-07 23:05:00,81.6,74.8,29.78,NNW,331,0.0,0.0,80,0.00,,,0.00,Wunderground v.1.15,2013-08-08 04:05:00,
2013-08-07 23:06:00,81.6,74.8,29.78,NNW,331,0.0,0.0,80,0.00,,---,0.00,VWS V14.01,2013-08-08 04:06:00,
2013-08-07 23:10:00,81.6,74.5,29.78,NNW,331,0.0,0.0,79,0.00,,,0.00,Wunderground v.1.15,2013-08-08 04:10:00,
2013-08-07 23:11:00,81.6,74.5,29.78,NNW,331,0.0,0.0,79,0.00,,---,0.00,VWS V14.01,2013-08-08 04:11:00,
2013-08-07 23:15:00,81.4,74.6,29.78,NNW,331,0.0,0.0,80,0.00,,,0.00,Wunderground v.1.15,2013-08-08 04:15:00,
2013-08-07 23:16:00,81.2,74.8,29.78,NNW,331,0.0,0.0,81,0.00,,---,0.00,VWS V14.01,2013-08-08 04:16:00,
2013-08-07 23:20:00,81.2,74.4,29.79,NNW,331,0.0,0.0,80,0.00,,,0.00,Wunderground v.1.15,2013-08-08 04:20:00,
2013-08-07 23:21:00,81.2,74.4,29.79,NNW,331,0.0,0.0,80,0.00,,---,0.00,VWS V14.01,2013-08-08 04:21:00,
2013-08-07 23:25:00,81.1,74.3,29.79,NNW,331,0.0,0.0,80,0.00,,,0.00,Wunderground v.1.15,2013-08-08 04:25:00,
2013-08-07 23:26:00,81.1,74.0,29.79,NNW,331,0.0,0.0,79,0.00,,---,0.00,VWS V14.01,2013-08-08 04:26:00,
2013-08-07 23:30:00,81.1,74.0,29.79,NNW,331,0.0,0.0,79,0.00,,,0.00,Wunderground v.1.15,2013-08-08 04:30:00,
2013-08-07 23:31:00,81.2,74.1,29.79,NNW,331,0.0,0.0,79,0.00,,---,0.00,VWS V14.01,2013-08-08 04:31:00,
2013-08-07 23:35:00,81.2,74.1,29.79,NNW,331,0.0,0.0,79,0.00,,,0.00,Wunderground v.1.15,2013-08-08 04:35:00,
2013-08-07 23:37:00,81.2,74.1,29.79,NNW,331,0.0,0.0,79,0.00,,---,0.00,VWS V14.01,2013-08-08 04:37:00,
2013-08-07 23:40:00,81.2,73.7,29.79,NNW,331,0.0,0.0,78,0.00,,,0.00,Wunderground v.1.15,2013-08-08 04:40:00,
2013-08-07 23:42:00,81.2,73.7,29.79,NNW,331,0.0,0.0,78,0.00,,---,0.00,VWS V14.01,2013-08-08 04:42:00,
2013-08-07 23:45:00,81.4,73.9,29.79,NNW,331,0.0,0.0,78,0.00,,,0.00,Wunderground v.1.15,2013-08-08 04:45:00,
2013-08-07 23:47:00,81.4,73.9,29.79,NNW,331,0.0,0.0,78,0.00,,---,0.00,VWS V14.01,2013-08-08 04:47:00,
2013-08-07 23:50:00,81.4,73.5,29.79,NNW,331,0.0,0.0,77,0.00,,,0.00,Wunderground v.1.15,2013-08-08 04:50:00,
2013-08-07 23:52:00,81.4,73.5,29.79,NNW,331,0.0,0.0,77,0.00,,---,0.00,VWS V14.01,2013-08-08 04:52:00,
2013-08-07 23:55:00,81.6,73.7,29.79,NNW,331,0.0,0.0,77,0.00,,,0.00,Wunderground v.1.15,2013-08-08 04:55:00,
2013-08-07 23:57:00,81.6,73.7,29.79,NNW,331,0.0,0.0,77,0.00,,---,0.00,VWS V14.01,2013-08-08 04:57:00,